sensor_id;sensor_type;location;lat;lon;timestamp;temperature;humidity
24730;DHT22;12832;52.392;13.066;2023-02-17T00:02:09;24.80;29.80
24730;DHT22;12832;52.392;13.066;2023-02-17T00:04:35;24.80;29.80
24730;DHT22;12832;52.392;13.066;2023-02-17T00:07:01;24.80;29.80
24730;DHT22;12832;52.392;13.066;2023-02-17T00:09:27;24.80;29.80
24730;DHT22;12832;52.392;13.066;2023-02-17T00:11:53;24.80;29.80
24730;DHT22;12832;52.392;13.066;2023-02-17T00:14:20;24.80;29.80
24730;DHT22;12832;52.392;13.066;2023-02-17T00:16:46;24.80;29.80
24730;DHT22;12832;52.392;13.066;2023-02-17T00:19:12;24.80;29.80
24730;DHT22;12832;52.392;13.066;2023-02-17T00:21:53;24.80;29.80
24730;DHT22;12832;52.392;13.066;2023-02-17T00:24:19;24.80;29.70
24730;DHT22;12832;52.392;13.066;2023-02-17T00:26:46;24.80;29.80
24730;DHT22;12832;52.392;13.066;2023-02-17T00:29:12;24.80;29.80
24730;DHT22;12832;52.392;13.066;2023-02-17T00:31:38;24.80;29.80
24730;DHT22;12832;52.392;13.066;2023-02-17T00:34:04;24.80;29.80
24730;DHT22;12832;52.392;13.066;2023-02-17T00:36:31;24.80;29.80
24730;DHT22;12832;52.392;13.066;2023-02-17T00:38:58;24.90;29.80
24730;DHT22;12832;52.392;13.066;2023-02-17T00:41:25;24.80;29.80
24730;DHT22;12832;52.392;13.066;2023-02-17T00:43:52;24.80;29.80
24730;DHT22;12832;52.392;13.066;2023-02-17T00:46:18;24.80;29.80
24730;DHT22;12832;52.392;13.066;2023-02-17T00:48:45;24.80;29.80
24730;DHT22;12832;52.392;13.066;2023-02-17T00:51:11;24.90;29.80
24730;DHT22;12832;52.392;13.066;2023-02-17T00:53:38;24.90;29.80
24730;DHT22;12832;52.392;13.066;2023-02-17T00:56:04;24.90;29.80
24730;DHT22;12832;52.392;13.066;2023-02-17T00:58:31;24.90;29.80
24730;DHT22;12832;52.392;13.066;2023-02-17T01:00:57;24.90;29.80
24730;DHT22;12832;52.392;13.066;2023-02-17T01:03:24;24.90;29.80
24730;DHT22;12832;52.392;13.066;2023-02-17T01:05:50;24.90;29.80
24730;DHT22;12832;52.392;13.066;2023-02-17T01:08:17;24.90;29.80
24730;DHT22;12832;52.392;13.066;2023-02-17T01:10:45;24.90;29.80
24730;DHT22;12832;52.392;13.066;2023-02-17T01:13:12;24.90;29.80
24730;DHT22;12832;52.392;13.066;2023-02-17T01:15:43;24.80;29.80
24730;DHT22;12832;52.392;13.066;2023-02-17T01:18:10;24.90;29.80
24730;DHT22;12832;52.392;13.066;2023-02-17T01:20:37;24.90;29.80
24730;DHT22;12832;52.392;13.066;2023-02-17T01:23:05;24.90;29.80
24730;DHT22;12832;52.392;13.066;2023-02-17T01:25:36;24.90;29.80
24730;DHT22;12832;52.392;13.066;2023-02-17T01:28:02;24.90;29.80
24730;DHT22;12832;52.392;13.066;2023-02-17T01:30:28;24.80;29.80
24730;DHT22;12832;52.392;13.066;2023-02-17T01:32:54;24.90;29.80
24730;DHT22;12832;52.392;13.066;2023-02-17T01:35:20;24.90;29.80
24730;DHT22;12832;52.392;13.066;2023-02-17T01:37:47;24.90;29.80
24730;DHT22;12832;52.392;13.066;2023-02-17T01:40:14;24.90;29.80
24730;DHT22;12832;52.392;13.066;2023-02-17T01:42:40;24.90;30.30
24730;DHT22;12832;52.392;13.066;2023-02-17T01:47:48;24.90;29.80
24730;DHT22;12832;52.392;13.066;2023-02-17T01:50:16;24.90;29.80
24730;DHT22;12832;52.392;13.066;2023-02-17T01:52:45;24.90;29.80
24730;DHT22;12832;52.392;13.066;2023-02-17T01:55:14;24.90;29.80
24730;DHT22;12832;52.392;13.066;2023-02-17T01:57:43;24.90;29.80
24730;DHT22;12832;52.392;13.066;2023-02-17T02:00:11;24.90;29.80
24730;DHT22;12832;52.392;13.066;2023-02-17T02:02:40;24.90;29.80
24730;DHT22;12832;52.392;13.066;2023-02-17T02:05:08;24.90;29.80
24730;DHT22;12832;52.392;13.066;2023-02-17T02:07:37;24.90;29.80
24730;DHT22;12832;52.392;13.066;2023-02-17T02:10:04;24.90;29.80
24730;DHT22;12832;52.392;13.066;2023-02-17T02:12:34;24.90;29.80
24730;DHT22;12832;52.392;13.066;2023-02-17T02:15:04;24.90;29.80
24730;DHT22;12832;52.392;13.066;2023-02-17T02:28:05;24.80;29.30
24730;DHT22;12832;52.392;13.066;2023-02-17T02:35:56;24.90;29.80
24730;DHT22;12832;52.392;13.066;2023-02-17T02:38:33;24.90;29.80
24730;DHT22;12832;52.392;13.066;2023-02-17T02:41:15;24.90;29.80
24730;DHT22;12832;52.392;13.066;2023-02-17T02:43:42;24.90;29.80
24730;DHT22;12832;52.392;13.066;2023-02-17T02:46:09;24.90;29.80
24730;DHT22;12832;52.392;13.066;2023-02-17T02:48:36;24.90;29.80
24730;DHT22;12832;52.392;13.066;2023-02-17T02:51:20;24.90;29.80
24730;DHT22;12832;52.392;13.066;2023-02-17T02:54:05;24.90;29.80
24730;DHT22;12832;52.392;13.066;2023-02-17T03:03:02;24.90;29.80
24730;DHT22;12832;52.392;13.066;2023-02-17T03:05:56;24.90;29.80
24730;DHT22;12832;52.392;13.066;2023-02-17T03:08:35;24.90;29.80
24730;DHT22;12832;52.392;13.066;2023-02-17T03:11:03;24.90;29.80
24730;DHT22;12832;52.392;13.066;2023-02-17T03:13:32;24.90;29.80
24730;DHT22;12832;52.392;13.066;2023-02-17T03:16:02;24.90;29.80
24730;DHT22;12832;52.392;13.066;2023-02-17T03:18:31;24.90;29.80
24730;DHT22;12832;52.392;13.066;2023-02-17T03:21:05;24.90;29.90
24730;DHT22;12832;52.392;13.066;2023-02-17T03:23:33;24.90;29.80
24730;DHT22;12832;52.392;13.066;2023-02-17T03:25:59;24.90;29.80
24730;DHT22;12832;52.392;13.066;2023-02-17T03:28:25;24.90;29.80
24730;DHT22;12832;52.392;13.066;2023-02-17T03:30:51;24.90;29.80
24730;DHT22;12832;52.392;13.066;2023-02-17T03:33:17;24.90;29.80
24730;DHT22;12832;52.392;13.066;2023-02-17T03:35:43;24.90;29.80
24730;DHT22;12832;52.392;13.066;2023-02-17T03:38:10;24.90;29.80
24730;DHT22;12832;52.392;13.066;2023-02-17T03:40:36;24.90;29.80
24730;DHT22;12832;52.392;13.066;2023-02-17T03:43:02;24.90;29.80
24730;DHT22;12832;52.392;13.066;2023-02-17T03:45:28;24.90;29.90
24730;DHT22;12832;52.392;13.066;2023-02-17T03:47:54;24.90;29.80
24730;DHT22;12832;52.392;13.066;2023-02-17T03:50:20;24.90;29.80
24730;DHT22;12832;52.392;13.066;2023-02-17T03:52:47;24.90;29.80
24730;DHT22;12832;52.392;13.066;2023-02-17T03:55:13;24.90;29.80
24730;DHT22;12832;52.392;13.066;2023-02-17T03:57:39;24.90;29.80
24730;DHT22;12832;52.392;13.066;2023-02-17T04:00:06;24.90;29.80
24730;DHT22;12832;52.392;13.066;2023-02-17T04:02:32;24.90;29.80
24730;DHT22;12832;52.392;13.066;2023-02-17T04:04:58;24.90;29.80
24730;DHT22;12832;52.392;13.066;2023-02-17T04:07:24;24.90;29.90
24730;DHT22;12832;52.392;13.066;2023-02-17T04:09:50;24.90;29.80
24730;DHT22;12832;52.392;13.066;2023-02-17T04:12:16;24.90;29.90
24730;DHT22;12832;52.392;13.066;2023-02-17T04:14:43;24.90;29.90
24730;DHT22;12832;52.392;13.066;2023-02-17T04:17:09;24.90;29.90
24730;DHT22;12832;52.392;13.066;2023-02-17T04:19:35;25.00;29.90
24730;DHT22;12832;52.392;13.066;2023-02-17T04:22:01;24.90;29.80
24730;DHT22;12832;52.392;13.066;2023-02-17T04:24:27;24.90;29.90
24730;DHT22;12832;52.392;13.066;2023-02-17T04:26:53;25.00;29.90
24730;DHT22;12832;52.392;13.066;2023-02-17T04:29:19;24.90;29.90
24730;DHT22;12832;52.392;13.066;2023-02-17T04:31:45;24.90;29.90
24730;DHT22;12832;52.392;13.066;2023-02-17T04:34:11;24.90;29.80
24730;DHT22;12832;52.392;13.066;2023-02-17T04:36:38;24.90;29.90
24730;DHT22;12832;52.392;13.066;2023-02-17T04:39:04;24.90;29.90
24730;DHT22;12832;52.392;13.066;2023-02-17T04:41:30;24.90;29.90
24730;DHT22;12832;52.392;13.066;2023-02-17T04:43:56;24.90;29.80
24730;DHT22;12832;52.392;13.066;2023-02-17T04:46:22;24.90;29.80
24730;DHT22;12832;52.392;13.066;2023-02-17T04:48:48;25.00;29.90
24730;DHT22;12832;52.392;13.066;2023-02-17T04:51:14;25.00;29.90
24730;DHT22;12832;52.392;13.066;2023-02-17T04:53:40;24.90;29.90
24730;DHT22;12832;52.392;13.066;2023-02-17T04:56:06;25.00;29.90
24730;DHT22;12832;52.392;13.066;2023-02-17T04:58:33;24.90;29.90
24730;DHT22;12832;52.392;13.066;2023-02-17T05:00:59;25.00;29.90
24730;DHT22;12832;52.392;13.066;2023-02-17T05:03:26;25.00;29.90
24730;DHT22;12832;52.392;13.066;2023-02-17T05:05:52;25.00;29.90
24730;DHT22;12832;52.392;13.066;2023-02-17T05:08:18;25.00;30.00
24730;DHT22;12832;52.392;13.066;2023-02-17T05:10:44;25.00;30.00
24730;DHT22;12832;52.392;13.066;2023-02-17T05:13:10;25.00;30.00
24730;DHT22;12832;52.392;13.066;2023-02-17T05:15:36;25.00;30.10
24730;DHT22;12832;52.392;13.066;2023-02-17T05:18:02;25.00;30.30
24730;DHT22;12832;52.392;13.066;2023-02-17T05:20:29;25.00;30.40
24730;DHT22;12832;52.392;13.066;2023-02-17T05:22:55;25.00;30.40
24730;DHT22;12832;52.392;13.066;2023-02-17T05:25:21;24.90;30.30
24730;DHT22;12832;52.392;13.066;2023-02-17T05:27:47;25.00;30.40
24730;DHT22;12832;52.392;13.066;2023-02-17T05:30:13;25.00;30.40
24730;DHT22;12832;52.392;13.066;2023-02-17T05:32:39;25.00;30.30
24730;DHT22;12832;52.392;13.066;2023-02-17T05:35:06;25.00;30.30
24730;DHT22;12832;52.392;13.066;2023-02-17T05:37:32;25.00;30.40
24730;DHT22;12832;52.392;13.066;2023-02-17T05:39:58;24.90;30.30
24730;DHT22;12832;52.392;13.066;2023-02-17T05:42:24;25.00;30.30
24730;DHT22;12832;52.392;13.066;2023-02-17T05:44:56;25.00;30.30
24730;DHT22;12832;52.392;13.066;2023-02-17T05:47:23;25.00;30.30
24730;DHT22;12832;52.392;13.066;2023-02-17T05:49:49;25.00;30.20
24730;DHT22;12832;52.392;13.066;2023-02-17T05:52:15;25.00;30.30
24730;DHT22;12832;52.392;13.066;2023-02-17T05:54:43;25.00;30.30
24730;DHT22;12832;52.392;13.066;2023-02-17T05:57:09;25.00;30.20
24730;DHT22;12832;52.392;13.066;2023-02-17T05:59:35;25.00;30.30
24730;DHT22;12832;52.392;13.066;2023-02-17T06:02:01;25.00;30.30
24730;DHT22;12832;52.392;13.066;2023-02-17T06:04:27;24.90;31.20
24730;DHT22;12832;52.392;13.066;2023-02-17T06:06:53;24.90;31.50
24730;DHT22;12832;52.392;13.066;2023-02-17T06:09:19;24.90;31.70
24730;DHT22;12832;52.392;13.066;2023-02-17T06:11:45;24.90;31.80
24730;DHT22;12832;52.392;13.066;2023-02-17T06:14:12;24.80;31.90
24730;DHT22;12832;52.392;13.066;2023-02-17T06:16:38;24.80;32.00
24730;DHT22;12832;52.392;13.066;2023-02-17T06:19:05;24.80;32.10
24730;DHT22;12832;52.392;13.066;2023-02-17T06:21:31;24.70;32.20
24730;DHT22;12832;52.392;13.066;2023-02-17T06:23:57;24.70;32.40
24730;DHT22;12832;52.392;13.066;2023-02-17T06:26:23;24.70;32.60
24730;DHT22;12832;52.392;13.066;2023-02-17T06:28:50;24.70;32.70
24730;DHT22;12832;52.392;13.066;2023-02-17T06:31:16;24.70;32.70
24730;DHT22;12832;52.392;13.066;2023-02-17T06:33:42;24.70;32.80
24730;DHT22;12832;52.392;13.066;2023-02-17T06:36:08;24.70;32.80
24730;DHT22;12832;52.392;13.066;2023-02-17T06:38:35;24.60;32.80
24730;DHT22;12832;52.392;13.066;2023-02-17T06:41:01;24.60;32.90
24730;DHT22;12832;52.392;13.066;2023-02-17T06:43:27;24.60;33.00
24730;DHT22;12832;52.392;13.066;2023-02-17T06:45:53;24.60;33.00
24730;DHT22;12832;52.392;13.066;2023-02-17T06:48:19;24.60;33.10
24730;DHT22;12832;52.392;13.066;2023-02-17T06:50:47;24.50;33.20
24730;DHT22;12832;52.392;13.066;2023-02-17T06:53:13;24.50;33.20
24730;DHT22;12832;52.392;13.066;2023-02-17T06:55:39;24.50;33.30
24730;DHT22;12832;52.392;13.066;2023-02-17T06:58:05;24.50;33.30
24730;DHT22;12832;52.392;13.066;2023-02-17T07:00:33;24.60;33.40
24730;DHT22;12832;52.392;13.066;2023-02-17T07:02:59;24.50;33.40
24730;DHT22;12832;52.392;13.066;2023-02-17T07:05:25;24.50;33.50
24730;DHT22;12832;52.392;13.066;2023-02-17T07:07:51;24.60;33.60
24730;DHT22;12832;52.392;13.066;2023-02-17T07:10:18;24.60;33.70
24730;DHT22;12832;52.392;13.066;2023-02-17T07:12:44;24.50;33.60
24730;DHT22;12832;52.392;13.066;2023-02-17T07:15:11;24.50;33.70
24730;DHT22;12832;52.392;13.066;2023-02-17T07:17:38;24.50;33.70
24730;DHT22;12832;52.392;13.066;2023-02-17T07:20:04;24.50;33.70
24730;DHT22;12832;52.392;13.066;2023-02-17T07:22:31;24.50;33.70
24730;DHT22;12832;52.392;13.066;2023-02-17T07:24:57;24.50;33.70
24730;DHT22;12832;52.392;13.066;2023-02-17T07:27:23;24.50;33.80
24730;DHT22;12832;52.392;13.066;2023-02-17T07:29:49;24.50;33.80
24730;DHT22;12832;52.392;13.066;2023-02-17T07:32:15;24.50;33.80
24730;DHT22;12832;52.392;13.066;2023-02-17T07:34:41;24.50;33.90
24730;DHT22;12832;52.392;13.066;2023-02-17T07:37:08;24.40;34.00
24730;DHT22;12832;52.392;13.066;2023-02-17T07:39:35;24.40;34.00
24730;DHT22;12832;52.392;13.066;2023-02-17T07:42:01;24.50;34.10
24730;DHT22;12832;52.392;13.066;2023-02-17T07:44:30;24.50;34.10
24730;DHT22;12832;52.392;13.066;2023-02-17T07:46:57;24.50;34.10
24730;DHT22;12832;52.392;13.066;2023-02-17T07:49:23;24.50;34.20
24730;DHT22;12832;52.392;13.066;2023-02-17T07:51:49;24.50;34.10
24730;DHT22;12832;52.392;13.066;2023-02-17T07:54:16;24.40;34.20
24730;DHT22;12832;52.392;13.066;2023-02-17T07:56:43;24.50;34.30
24730;DHT22;12832;52.392;13.066;2023-02-17T07:59:10;24.40;34.20
24730;DHT22;12832;52.392;13.066;2023-02-17T08:01:37;24.50;34.30
24730;DHT22;12832;52.392;13.066;2023-02-17T08:04:03;24.40;34.30
24730;DHT22;12832;52.392;13.066;2023-02-17T08:06:30;24.40;34.20
24730;DHT22;12832;52.392;13.066;2023-02-17T08:08:57;24.40;34.10
24730;DHT22;12832;52.392;13.066;2023-02-17T08:11:42;24.40;34.10
24730;DHT22;12832;52.392;13.066;2023-02-17T08:14:30;24.50;34.20
24730;DHT22;12832;52.392;13.066;2023-02-17T08:16:56;24.40;34.00
24730;DHT22;12832;52.392;13.066;2023-02-17T08:19:23;24.40;34.00
24730;DHT22;12832;52.392;13.066;2023-02-17T08:21:52;24.40;34.10
24730;DHT22;12832;52.392;13.066;2023-02-17T08:24:19;24.40;34.00
24730;DHT22;12832;52.392;13.066;2023-02-17T08:26:47;24.40;34.10
24730;DHT22;12832;52.392;13.066;2023-02-17T08:29:14;24.40;34.10
24730;DHT22;12832;52.392;13.066;2023-02-17T08:31:41;24.40;34.10
24730;DHT22;12832;52.392;13.066;2023-02-17T08:34:09;24.40;34.30
24730;DHT22;12832;52.392;13.066;2023-02-17T08:36:36;24.40;34.30
24730;DHT22;12832;52.392;13.066;2023-02-17T08:39:08;24.40;34.40
24730;DHT22;12832;52.392;13.066;2023-02-17T08:41:37;24.40;34.50
24730;DHT22;12832;52.392;13.066;2023-02-17T08:44:09;24.40;34.60
24730;DHT22;12832;52.392;13.066;2023-02-17T08:46:36;24.40;34.50
24730;DHT22;12832;52.392;13.066;2023-02-17T08:49:04;24.40;34.60
24730;DHT22;12832;52.392;13.066;2023-02-17T08:51:30;24.40;34.60
24730;DHT22;12832;52.392;13.066;2023-02-17T08:53:58;24.40;34.70
24730;DHT22;12832;52.392;13.066;2023-02-17T08:56:26;24.40;34.70
24730;DHT22;12832;52.392;13.066;2023-02-17T08:58:52;24.40;34.70
24730;DHT22;12832;52.392;13.066;2023-02-17T09:01:20;24.40;34.80
24730;DHT22;12832;52.392;13.066;2023-02-17T09:03:48;24.40;34.80
24730;DHT22;12832;52.392;13.066;2023-02-17T09:06:15;24.40;34.80
24730;DHT22;12832;52.392;13.066;2023-02-17T09:08:43;24.40;34.70
24730;DHT22;12832;52.392;13.066;2023-02-17T09:11:11;24.40;34.70
24730;DHT22;12832;52.392;13.066;2023-02-17T09:13:42;24.40;34.70
24730;DHT22;12832;52.392;13.066;2023-02-17T09:16:08;24.40;34.70
24730;DHT22;12832;52.392;13.066;2023-02-17T09:18:35;24.30;34.70
24730;DHT22;12832;52.392;13.066;2023-02-17T09:21:10;24.40;34.80
24730;DHT22;12832;52.392;13.066;2023-02-17T09:23:36;24.30;34.80
24730;DHT22;12832;52.392;13.066;2023-02-17T09:26:04;24.40;34.90
24730;DHT22;12832;52.392;13.066;2023-02-17T09:28:32;24.30;34.90
24730;DHT22;12832;52.392;13.066;2023-02-17T09:31:14;24.30;35.00
24730;DHT22;12832;52.392;13.066;2023-02-17T09:33:40;24.30;35.10
24730;DHT22;12832;52.392;13.066;2023-02-17T09:36:09;24.30;35.10
24730;DHT22;12832;52.392;13.066;2023-02-17T09:38:43;24.30;35.20
24730;DHT22;12832;52.392;13.066;2023-02-17T09:41:31;24.30;35.20
24730;DHT22;12832;52.392;13.066;2023-02-17T09:43:59;24.30;35.20
24730;DHT22;12832;52.392;13.066;2023-02-17T09:46:35;24.30;35.30
24730;DHT22;12832;52.392;13.066;2023-02-17T09:49:10;24.30;35.40
24730;DHT22;12832;52.392;13.066;2023-02-17T09:52:13;24.30;35.40
24730;DHT22;12832;52.392;13.066;2023-02-17T09:55:14;24.30;35.50
24730;DHT22;12832;52.392;13.066;2023-02-17T10:01:00;24.30;35.60
24730;DHT22;12832;52.392;13.066;2023-02-17T10:03:42;24.30;35.70
24730;DHT22;12832;52.392;13.066;2023-02-17T10:06:16;24.30;35.70
24730;DHT22;12832;52.392;13.066;2023-02-17T10:11:39;24.20;35.80
24730;DHT22;12832;52.392;13.066;2023-02-17T10:14:41;24.20;35.80
24730;DHT22;12832;52.392;13.066;2023-02-17T10:17:39;24.20;35.90
24730;DHT22;12832;52.392;13.066;2023-02-17T10:20:13;24.20;35.90
24730;DHT22;12832;52.392;13.066;2023-02-17T10:22:44;24.20;36.00
24730;DHT22;12832;52.392;13.066;2023-02-17T10:25:16;24.20;36.10
24730;DHT22;12832;52.392;13.066;2023-02-17T10:28:49;24.20;36.10
24730;DHT22;12832;52.392;13.066;2023-02-17T10:31:02;24.20;36.10
24730;DHT22;12832;52.392;13.066;2023-02-17T10:33:37;24.20;36.20
24730;DHT22;12832;52.392;13.066;2023-02-17T10:42:02;24.20;36.40
24730;DHT22;12832;52.392;13.066;2023-02-17T10:44:31;24.20;36.20
24730;DHT22;12832;52.392;13.066;2023-02-17T10:46:59;24.20;36.20
24730;DHT22;12832;52.392;13.066;2023-02-17T10:49:35;24.20;36.40
24730;DHT22;12832;52.392;13.066;2023-02-17T10:52:17;24.20;36.40
24730;DHT22;12832;52.392;13.066;2023-02-17T10:54:55;24.20;36.50
24730;DHT22;12832;52.392;13.066;2023-02-17T10:57:26;24.20;36.50
24730;DHT22;12832;52.392;13.066;2023-02-17T10:59:54;24.20;36.60
24730;DHT22;12832;52.392;13.066;2023-02-17T11:02:32;24.20;36.60
24730;DHT22;12832;52.392;13.066;2023-02-17T11:05:00;24.20;36.70
24730;DHT22;12832;52.392;13.066;2023-02-17T11:07:35;24.20;36.70
24730;DHT22;12832;52.392;13.066;2023-02-17T11:10:18;24.20;36.70
24730;DHT22;12832;52.392;13.066;2023-02-17T11:12:45;24.20;36.70
24730;DHT22;12832;52.392;13.066;2023-02-17T11:15:29;24.20;36.70
24730;DHT22;12832;52.392;13.066;2023-02-17T11:17:59;24.20;36.80
24730;DHT22;12832;52.392;13.066;2023-02-17T11:20:30;24.20;36.90
24730;DHT22;12832;52.392;13.066;2023-02-17T11:23:15;24.20;36.90
24730;DHT22;12832;52.392;13.066;2023-02-17T11:25:55;24.20;37.00
24730;DHT22;12832;52.392;13.066;2023-02-17T11:28:23;24.20;36.80
24730;DHT22;12832;52.392;13.066;2023-02-17T11:30:52;24.20;36.90
24730;DHT22;12832;52.392;13.066;2023-02-17T11:35:59;24.20;37.00
24730;DHT22;12832;52.392;13.066;2023-02-17T11:41:05;24.20;36.90
24730;DHT22;12832;52.392;13.066;2023-02-17T11:43:33;24.20;37.00
24730;DHT22;12832;52.392;13.066;2023-02-17T11:51:57;24.20;37.00
24730;DHT22;12832;52.392;13.066;2023-02-17T12:08:21;24.10;37.10
24730;DHT22;12832;52.392;13.066;2023-02-17T12:25:25;24.10;37.30
24730;DHT22;12832;52.392;13.066;2023-02-17T12:36:15;24.10;37.40
24730;DHT22;12832;52.392;13.066;2023-02-17T12:38:47;24.10;37.40
24730;DHT22;12832;52.392;13.066;2023-02-17T12:41:25;24.10;37.40
24730;DHT22;12832;52.392;13.066;2023-02-17T12:43:57;24.10;37.50
24730;DHT22;12832;52.392;13.066;2023-02-17T12:46:37;24.10;38.00
24730;DHT22;12832;52.392;13.066;2023-02-17T12:49:35;24.10;37.40
24730;DHT22;12832;52.392;13.066;2023-02-17T12:52:25;24.10;37.40
24730;DHT22;12832;52.392;13.066;2023-02-17T12:55:04;24.10;37.40
24730;DHT22;12832;52.392;13.066;2023-02-17T12:57:43;24.10;37.50
24730;DHT22;12832;52.392;13.066;2023-02-17T13:02:47;24.10;37.20
24730;DHT22;12832;52.392;13.066;2023-02-17T13:05:27;24.10;37.40
24730;DHT22;12832;52.392;13.066;2023-02-17T13:08:37;24.10;37.50
24730;DHT22;12832;52.392;13.066;2023-02-17T13:11:10;24.00;37.50
24730;DHT22;12832;52.392;13.066;2023-02-17T13:13:36;24.10;37.60
24730;DHT22;12832;52.392;13.066;2023-02-17T13:16:13;24.10;37.70
24730;DHT22;12832;52.392;13.066;2023-02-17T13:18:47;24.10;37.70
24730;DHT22;12832;52.392;13.066;2023-02-17T13:23:44;24.00;37.70
24730;DHT22;12832;52.392;13.066;2023-02-17T13:28:48;24.00;37.70
24730;DHT22;12832;52.392;13.066;2023-02-17T13:31:16;24.00;37.80
24730;DHT22;12832;52.392;13.066;2023-02-17T13:33:52;24.00;37.80
24730;DHT22;12832;52.392;13.066;2023-02-17T13:41:47;24.00;37.90
24730;DHT22;12832;52.392;13.066;2023-02-17T13:46:46;24.00;38.10
24730;DHT22;12832;52.392;13.066;2023-02-17T13:49:21;24.00;38.00
24730;DHT22;12832;52.392;13.066;2023-02-17T13:51:48;24.00;37.80
24730;DHT22;12832;52.392;13.066;2023-02-17T13:54:19;24.00;37.70
24730;DHT22;12832;52.392;13.066;2023-02-17T13:56:50;24.00;37.60
24730;DHT22;12832;52.392;13.066;2023-02-17T13:59:24;24.00;37.90
24730;DHT22;12832;52.392;13.066;2023-02-17T14:01:52;24.00;38.00
24730;DHT22;12832;52.392;13.066;2023-02-17T14:04:26;24.00;38.10
24730;DHT22;12832;52.392;13.066;2023-02-17T14:06:52;24.00;38.20
24730;DHT22;12832;52.392;13.066;2023-02-17T14:11:56;24.00;38.30
24730;DHT22;12832;52.392;13.066;2023-02-17T14:14:28;24.00;38.30
24730;DHT22;12832;52.392;13.066;2023-02-17T14:16:59;24.00;38.30
24730;DHT22;12832;52.392;13.066;2023-02-17T14:19:25;24.00;38.40
24730;DHT22;12832;52.392;13.066;2023-02-17T14:22:03;24.00;38.40
24730;DHT22;12832;52.392;13.066;2023-02-17T14:24:35;24.00;38.40
24730;DHT22;12832;52.392;13.066;2023-02-17T14:27:05;24.00;38.40
24730;DHT22;12832;52.392;13.066;2023-02-17T14:29:42;24.00;38.40
24730;DHT22;12832;52.392;13.066;2023-02-17T14:32:36;24.00;38.40
24730;DHT22;12832;52.392;13.066;2023-02-17T14:35:21;24.00;38.50
24730;DHT22;12832;52.392;13.066;2023-02-17T14:37:47;24.00;38.50
24730;DHT22;12832;52.392;13.066;2023-02-17T14:40:19;24.00;38.60
24730;DHT22;12832;52.392;13.066;2023-02-17T14:42:46;24.00;38.60
24730;DHT22;12832;52.392;13.066;2023-02-17T14:45:12;24.00;38.60
24730;DHT22;12832;52.392;13.066;2023-02-17T14:47:43;24.00;38.60
24730;DHT22;12832;52.392;13.066;2023-02-17T14:50:10;24.00;38.70
24730;DHT22;12832;52.392;13.066;2023-02-17T14:52:41;24.00;38.80
24730;DHT22;12832;52.392;13.066;2023-02-17T14:55:21;24.00;38.80
24730;DHT22;12832;52.392;13.066;2023-02-17T14:57:49;23.90;38.90
24730;DHT22;12832;52.392;13.066;2023-02-17T15:00:16;24.00;39.00
24730;DHT22;12832;52.392;13.066;2023-02-17T15:02:42;23.90;39.00
24730;DHT22;12832;52.392;13.066;2023-02-17T15:05:08;23.90;39.10
24730;DHT22;12832;52.392;13.066;2023-02-17T15:07:34;23.90;39.20
24730;DHT22;12832;52.392;13.066;2023-02-17T15:10:01;23.90;39.30
24730;DHT22;12832;52.392;13.066;2023-02-17T15:12:27;23.90;39.40
24730;DHT22;12832;52.392;13.066;2023-02-17T15:14:53;23.90;39.40
24730;DHT22;12832;52.392;13.066;2023-02-17T15:17:20;23.90;39.50
24730;DHT22;12832;52.392;13.066;2023-02-17T15:19:46;23.90;39.50
24730;DHT22;12832;52.392;13.066;2023-02-17T15:22:14;23.90;39.60
24730;DHT22;12832;52.392;13.066;2023-02-17T15:24:40;23.90;39.70
24730;DHT22;12832;52.392;13.066;2023-02-17T15:27:09;23.90;39.70
24730;DHT22;12832;52.392;13.066;2023-02-17T15:29:37;23.90;39.70
24730;DHT22;12832;52.392;13.066;2023-02-17T15:32:03;23.90;39.80
24730;DHT22;12832;52.392;13.066;2023-02-17T15:34:35;23.90;39.90
24730;DHT22;12832;52.392;13.066;2023-02-17T15:37:01;23.90;40.00
24730;DHT22;12832;52.392;13.066;2023-02-17T15:39:28;23.90;40.00
24730;DHT22;12832;52.392;13.066;2023-02-17T15:41:55;23.90;40.00
24730;DHT22;12832;52.392;13.066;2023-02-17T15:44:33;23.90;40.10
24730;DHT22;12832;52.392;13.066;2023-02-17T15:47:03;23.90;40.20
24730;DHT22;12832;52.392;13.066;2023-02-17T15:49:30;23.90;40.20
24730;DHT22;12832;52.392;13.066;2023-02-17T15:51:56;23.90;40.20
24730;DHT22;12832;52.392;13.066;2023-02-17T15:54:22;23.90;40.30
24730;DHT22;12832;52.392;13.066;2023-02-17T15:56:49;23.90;40.20
24730;DHT22;12832;52.392;13.066;2023-02-17T15:59:22;23.90;40.30
24730;DHT22;12832;52.392;13.066;2023-02-17T16:01:49;23.90;40.30
24730;DHT22;12832;52.392;13.066;2023-02-17T16:04:21;23.90;40.30
24730;DHT22;12832;52.392;13.066;2023-02-17T16:06:47;23.90;40.30
24730;DHT22;12832;52.392;13.066;2023-02-17T16:09:13;23.90;40.20
24730;DHT22;12832;52.392;13.066;2023-02-17T16:11:48;23.90;40.30
24730;DHT22;12832;52.392;13.066;2023-02-17T16:14:26;23.90;40.30
24730;DHT22;12832;52.392;13.066;2023-02-17T16:16:53;23.90;40.40
24730;DHT22;12832;52.392;13.066;2023-02-17T16:19:20;23.90;40.60
24730;DHT22;12832;52.392;13.066;2023-02-17T16:21:46;23.90;40.60
24730;DHT22;12832;52.392;13.066;2023-02-17T16:24:12;23.90;40.70
24730;DHT22;12832;52.392;13.066;2023-02-17T16:26:39;23.90;40.60
24730;DHT22;12832;52.392;13.066;2023-02-17T16:29:15;23.90;40.60
24730;DHT22;12832;52.392;13.066;2023-02-17T16:31:42;23.90;40.60
24730;DHT22;12832;52.392;13.066;2023-02-17T16:34:16;24.00;40.60
24730;DHT22;12832;52.392;13.066;2023-02-17T16:36:42;24.00;40.50
24730;DHT22;12832;52.392;13.066;2023-02-17T16:39:13;23.90;40.50
24730;DHT22;12832;52.392;13.066;2023-02-17T16:41:40;24.00;40.60
24730;DHT22;12832;52.392;13.066;2023-02-17T16:44:07;23.90;40.50
24730;DHT22;12832;52.392;13.066;2023-02-17T16:46:35;24.00;40.50
24730;DHT22;12832;52.392;13.066;2023-02-17T16:49:03;24.00;40.50
24730;DHT22;12832;52.392;13.066;2023-02-17T16:51:33;24.00;40.50
24730;DHT22;12832;52.392;13.066;2023-02-17T16:53:59;24.00;40.50
24730;DHT22;12832;52.392;13.066;2023-02-17T16:56:33;24.00;40.40
24730;DHT22;12832;52.392;13.066;2023-02-17T16:59:00;24.00;40.40
24730;DHT22;12832;52.392;13.066;2023-02-17T17:01:26;24.00;40.40
24730;DHT22;12832;52.392;13.066;2023-02-17T17:03:52;24.00;40.30
24730;DHT22;12832;52.392;13.066;2023-02-17T17:06:25;24.00;40.30
24730;DHT22;12832;52.392;13.066;2023-02-17T17:08:52;24.00;40.30
24730;DHT22;12832;52.392;13.066;2023-02-17T17:11:22;24.00;40.20
24730;DHT22;12832;52.392;13.066;2023-02-17T17:13:49;24.00;40.20